createdAt,value
2022-10-25T00:00:06.336Z,26.52
2022-10-25T00:15:08.395Z,27.9339
2022-10-25T00:30:10.247Z,28.3957
2022-10-25T00:45:12.207Z,28.3926
2022-10-25T01:00:14.071Z,25.4088
2022-10-25T01:15:15.934Z,25.5809
2022-10-25T01:30:17.778Z,26.7967
2022-10-25T01:45:19.614Z,28.1487
2022-10-25T02:00:21.480Z,27.9735
2022-10-25T02:15:23.346Z,27.1198
2022-10-25T02:30:25.162Z,28.1815
2022-10-25T02:45:26.988Z,28.0156
2022-10-25T03:00:28.925Z,27.3235
2022-10-25T03:15:30.769Z,27.2455
2022-10-25T03:30:32.610Z,27.0474
2022-10-25T03:45:34.446Z,26.7354
2022-10-25T04:00:36.390Z,26.6735
2022-10-25T04:15:38.302Z,26.9106
2022-10-25T04:30:40.181Z,27.9766
2022-10-25T04:45:42.049Z,27.0276
2022-10-25T05:00:43.907Z,28.0447
2022-10-25T05:15:45.925Z,27.7946
2022-10-25T05:30:47.767Z,26.5887
2022-10-25T05:45:49.597Z,27.3947
2022-10-25T06:00:51.505Z,27.6677
2022-10-25T06:15:53.407Z,26.8487
2022-10-25T06:30:55.356Z,27.8825
2022-10-25T06:45:57.179Z,26.2507
2022-10-25T07:00:59.097Z,28.0187
2022-10-25T07:16:00.999Z,27.8658
2022-10-25T07:31:02.869Z,26.4686
2022-10-25T07:46:04.692Z,27.4566
2022-10-25T08:01:06.607Z,26.5169
2022-10-25T08:16:08.581Z,27.0146
2022-10-25T08:31:10.435Z,24.9767
2022-10-25T08:46:12.233Z,26.5435
2022-10-25T09:01:14.206Z,27.677
2022-10-25T09:16:16.097Z,25.9127
2022-10-25T09:31:19.030Z,27.1638
2022-10-25T09:46:20.900Z,26.663
2022-10-25T10:01:22.807Z,26.2829
2022-10-25T10:16:24.735Z,25.831
2022-10-25T10:31:26.539Z,25.1191
2022-10-25T10:46:28.366Z,23.9423
2022-10-25T11:01:30.453Z,23.4124
2022-10-25T11:16:32.416Z,23.1425
2022-10-25T11:31:34.341Z,22.9927
2022-10-25T11:46:36.166Z,21.9855
2022-10-25T12:01:38.283Z,21.7187
2022-10-25T12:16:40.391Z,22.1929
2022-10-25T12:31:42.261Z,21.2247
2022-10-25T12:46:44.120Z,21.1269
2022-10-25T13:01:46.044Z,20.7629
2022-10-25T13:16:47.942Z,20.2658
2022-10-25T13:31:49.830Z,20.0442
2022-10-25T13:46:51.660Z,19.8622
2022-10-25T14:01:53.702Z,20.0281
2022-10-25T14:16:55.603Z,19.1181
2022-10-25T14:31:57.479Z,18.9522
2022-10-25T14:46:59.328Z,18.4031
2022-10-25T15:02:01.300Z,20.0603
2022-10-25T15:17:03.182Z,18.6631
2022-10-25T15:32:05.016Z,18.0651
2022-10-25T15:47:06.881Z,18.5752
2022-10-25T16:02:08.870Z,18.7281
2022-10-25T16:17:10.729Z,19.2902
2022-10-25T16:32:12.563Z,19.1342
2022-10-25T16:47:14.368Z,18.9553
2022-10-25T17:02:16.344Z,19.5533
2022-10-25T17:17:18.379Z,18.829
2022-10-25T17:32:20.313Z,18.9324
2022-10-25T17:47:22.141Z,18.8965
2022-10-25T18:02:24.132Z,20.1191
2022-10-25T18:17:26.060Z,20.6354
2022-10-25T18:32:32.142Z,19.0302
2022-10-25T18:47:37.144Z,20.5091
2022-10-25T19:02:39.036Z,19.9891
2022-10-25T19:17:40.914Z,21.4352
2022-10-25T19:32:42.775Z,21
2022-10-25T19:47:44.583Z,21.9168
2022-10-25T20:02:46.491Z,22.5891
2022-10-25T20:17:48.897Z,22.9469
2022-10-25T20:32:50.934Z,23.0187
2022-10-25T20:47:52.798Z,23.3697
2022-10-25T21:02:54.628Z,21.5726
2022-10-25T21:17:56.451Z,23.3988
2022-10-25T21:32:58.318Z,23.8185
2022-10-25T21:48:00.201Z,24.6604
2022-10-25T22:03:02.997Z,25.2293
2022-10-25T22:18:04.818Z,25.3822
2022-10-25T22:33:06.679Z,25.8991
2022-10-25T22:48:08.501Z,26.3702
2022-10-25T23:03:10.457Z,26.2959
2022-10-25T23:18:12.352Z,26.5559
2022-10-25T23:33:14.221Z,26.78
2022-10-25T23:48:16.089Z,26.5621
